createdAt,value
2022-09-12T00:03:39.131Z,3.33
2022-09-12T00:07:06.082Z,3.42
2022-09-12T00:10:25.615Z,3.28
2022-09-12T00:13:05.402Z,3.35
2022-09-12T00:15:57.450Z,3.55
2022-09-12T00:24:02.306Z,3.05
2022-09-12T00:31:58.913Z,2.88
2022-09-12T00:35:30.433Z,3.15
2022-09-12T00:41:06.516Z,2.80
2022-09-12T00:47:56.652Z,3.10
2022-09-12T00:56:21.761Z,3.17
2022-09-12T01:04:12.388Z,2.83
2022-09-12T01:07:21.015Z,2.90
2022-09-12T01:11:05.493Z,2.97
2022-09-12T01:13:33.462Z,2.70
2022-09-12T01:16:24.745Z,3.10
2022-09-12T01:19:26.637Z,3.30
2022-09-12T01:22:21.807Z,2.97
2022-09-12T01:25:20.152Z,2.85
2022-09-12T01:27:51.171Z,2.83
2022-09-12T01:30:40.915Z,3.10
2022-09-12T01:38:37.544Z,2.70
2022-09-12T01:42:08.677Z,2.33
2022-09-12T01:45:01.339Z,2.85
2022-09-12T01:47:49.116Z,2.85
2022-09-12T01:50:26.540Z,2.70
2022-09-12T01:52:58.259Z,2.63
2022-09-12T01:55:57.808Z,3.13
2022-09-12T01:58:42.026Z,2.67
2022-09-12T02:01:22.035Z,2.92
2022-09-12T02:04:10.145Z,2.58
2022-09-12T02:06:51.734Z,2.65
2022-09-12T02:09:37.823Z,2.58
2022-09-12T02:12:17.852Z,2.85
2022-09-12T02:15:09.543Z,2.70
2022-09-12T02:17:47.890Z,2.60
2022-09-12T02:20:47.433Z,2.80
2022-09-12T02:23:33.761Z,2.60
2022-09-12T02:26:08.486Z,3.08
2022-09-12T02:28:52.708Z,2.63
2022-09-12T02:31:56.096Z,2.78
2022-09-12T02:34:51.918Z,2.80
2022-09-12T02:37:39.311Z,3.03
2022-09-12T02:40:40.001Z,3.05
2022-09-12T02:43:28.125Z,2.78
2022-09-12T02:46:01.117Z,2.72
2022-09-12T02:48:53.222Z,2.83
2022-09-12T02:51:25.061Z,2.42
2022-09-12T02:53:58.304Z,3.15
2022-09-12T02:56:33.311Z,2.67
2022-09-12T02:59:21.641Z,2.90
2022-09-12T03:05:30.141Z,2.70
2022-09-12T03:08:49.897Z,2.38
2022-09-12T03:12:05.899Z,2.50
2022-09-12T03:14:53.878Z,2.50
2022-09-12T03:17:41.758Z,2.60
2022-09-12T03:20:13.128Z,2.70
2022-09-12T03:22:52.360Z,2.67
2022-09-12T03:25:58.011Z,2.55
2022-09-12T03:31:18.005Z,1.98
2022-09-12T03:43:45.798Z,1.80
2022-09-12T03:46:19.967Z,1.77
2022-09-12T03:48:52.528Z,1.90
2022-09-12T03:51:31.047Z,1.88
2022-09-12T03:54:18.992Z,2.20
2022-09-12T03:56:56.176Z,2.40
2022-09-12T03:59:29.789Z,2.30
2022-09-12T04:02:04.480Z,2.25
2022-09-12T04:04:40.391Z,2.58
2022-09-12T04:07:21.410Z,2.22
2022-09-12T04:09:55.980Z,2.20
2022-09-12T04:12:32.251Z,2.15
2022-09-12T04:15:08.640Z,1.90
2022-09-12T04:17:40.742Z,1.75
2022-09-12T04:20:13.937Z,2.00
2022-09-12T04:22:47.098Z,2.00
2022-09-12T04:25:25.398Z,2.20
2022-09-12T04:27:56.405Z,2.00
2022-09-12T04:30:29.386Z,2.10
2022-09-12T04:33:08.196Z,2.40
2022-09-12T04:35:38.826Z,2.20
2022-09-12T04:38:33.249Z,2.17
2022-09-12T04:41:03.022Z,2.25
2022-09-12T04:43:39.222Z,2.42
2022-09-12T04:48:58.095Z,2.30
2022-09-12T04:52:09.200Z,2.20
2022-09-12T04:55:44.403Z,2.35
2022-09-12T04:58:16.588Z,2.22
2022-09-12T05:00:47.648Z,2.50
2022-09-12T05:03:17.862Z,2.45
2022-09-12T05:05:48.189Z,2.38
2022-09-12T05:08:16.964Z,2.53
2022-09-12T05:11:09.182Z,2.42
2022-09-12T05:13:37.853Z,2.40
2022-09-12T05:16:20.494Z,2.47
2022-09-12T05:18:52.179Z,2.50
2022-09-12T05:21:25.798Z,2.42
2022-09-12T05:24:01.571Z,2.50
2022-09-12T05:26:58.763Z,2.42
2022-09-12T05:29:28.352Z,2.53
2022-09-12T05:31:57.585Z,2.40
2022-09-12T05:34:28.220Z,2.38
2022-09-12T05:37:01.535Z,2.63
2022-09-12T05:39:33.285Z,2.35
2022-09-12T05:42:06.849Z,2.67
2022-09-12T05:44:37.574Z,2.33
2022-09-12T05:47:09.150Z,2.22
2022-09-12T05:49:49.648Z,2.60
2022-09-12T05:52:21.821Z,2.35
2022-09-12T05:54:54.059Z,2.53
2022-09-12T05:57:24.366Z,2.30
2022-09-12T05:59:54.575Z,2.70
2022-09-12T06:02:24.911Z,2.35
2022-09-12T06:05:06.712Z,2.55
2022-09-12T06:08:36.177Z,2.70
2022-09-12T06:11:09.725Z,2.35
2022-09-12T06:14:01.945Z,2.42
2022-09-12T06:16:35.059Z,2.35
2022-09-12T06:19:11.491Z,2.40
2022-09-12T06:21:41.845Z,2.38
2022-09-12T06:24:13.910Z,2.53
2022-09-12T06:26:45.462Z,2.23
2022-09-12T06:29:16.794Z,2.38
2022-09-12T06:31:46.076Z,2.22
2022-09-12T06:34:17.736Z,2.55
2022-09-12T06:36:51.119Z,2.40
2022-09-12T06:39:26.067Z,2.33
2022-09-12T06:41:56.805Z,2.15
2022-09-12T06:44:36.878Z,2.25
2022-09-12T06:47:05.829Z,2.13
2022-09-12T06:49:35.266Z,2.40
2022-09-12T06:52:09.588Z,2.20
2022-09-12T06:54:52.701Z,2.03
2022-09-12T06:57:37.044Z,2.03
2022-09-12T07:00:08.287Z,2.42
2022-09-12T07:02:37.767Z,2.10
2022-09-12T07:05:09.495Z,2.50
2022-09-12T07:07:50.183Z,2.15
2022-09-12T07:10:22.434Z,2.13
2022-09-12T07:12:53.292Z,2.10
2022-09-12T07:15:21.909Z,1.88
2022-09-12T07:17:52.263Z,2.05
2022-09-12T07:20:24.228Z,2.00
2022-09-12T07:22:53.428Z,2.10
2022-09-12T07:25:22.024Z,1.90
2022-09-12T07:27:53.930Z,2.00
2022-09-12T07:30:24.477Z,2.00
2022-09-12T07:32:56.113Z,2.15
2022-09-12T07:35:25.325Z,1.95
2022-09-12T07:37:54.078Z,2.20
2022-09-12T07:40:25.583Z,1.95
2022-09-12T07:42:57.391Z,1.67
2022-09-12T07:45:29.427Z,2.20
2022-09-12T07:47:58.343Z,2.10
2022-09-12T07:50:29.857Z,2.20
2022-09-12T07:53:00.915Z,2.10
2022-09-12T07:55:37.317Z,2.22
2022-09-12T07:58:07.665Z,2.30
2022-09-12T08:00:40.380Z,1.77
2022-09-12T08:03:12.892Z,2.08
2022-09-12T08:05:44.262Z,1.83
2022-09-12T08:08:18.569Z,2.00
2022-09-12T08:10:50.756Z,2.10
2022-09-12T08:13:20.766Z,2.10
2022-09-12T08:15:50.500Z,2.10
2022-09-12T08:18:21.735Z,1.98
2022-09-12T08:21:20.790Z,2.07
2022-09-12T08:23:54.909Z,2.15
2022-09-12T08:26:25.773Z,1.90
2022-09-12T08:29:37.706Z,2.05
2022-09-12T08:32:23.124Z,2.20
2022-09-12T08:35:02.493Z,2.15
2022-09-12T08:37:37.468Z,2.05
2022-09-12T08:40:10.191Z,2.30
2022-09-12T08:42:57.044Z,1.85
2022-09-12T08:45:55.818Z,2.00
2022-09-12T08:48:33.814Z,1.80
2022-09-12T08:51:06.341Z,1.95
2022-09-12T08:53:38.540Z,2.00
2022-09-12T08:56:17.163Z,2.00
2022-09-12T08:58:48.460Z,1.65
2022-09-12T09:01:43.520Z,1.90
2022-09-12T09:04:18.049Z,1.88
2022-09-12T09:06:50.131Z,1.90
2022-09-12T09:09:31.256Z,2.00
2022-09-12T09:12:22.760Z,1.73
2022-09-12T09:15:26.446Z,1.70
2022-09-12T09:18:02.445Z,1.40
2022-09-12T09:20:51.939Z,1.85
2022-09-12T09:23:42.709Z,1.75
2022-09-12T09:27:53.742Z,1.80
2022-09-12T09:30:33.741Z,1.60
2022-09-12T09:33:08.204Z,2.05
2022-09-12T09:35:49.236Z,1.80
2022-09-12T09:38:29.989Z,1.80
2022-09-12T09:41:00.516Z,1.80
2022-09-12T09:43:32.255Z,1.70
2022-09-12T09:46:14.418Z,1.77
2022-09-12T09:48:49.345Z,1.85
2022-09-12T09:51:22.763Z,1.85
2022-09-12T09:54:00.038Z,2.00
2022-09-12T09:56:34.005Z,1.83
2022-09-12T09:59:17.320Z,2.10
2022-09-12T10:02:06.263Z,1.95
2022-09-12T10:04:42.039Z,2.03
2022-09-12T10:07:22.420Z,2.22
2022-09-12T10:10:16.114Z,1.90
2022-09-12T10:12:45.692Z,2.03
2022-09-12T10:15:21.935Z,2.22
2022-09-12T10:17:53.014Z,2.00
2022-09-12T10:20:38.152Z,2.00
2022-09-12T10:23:21.410Z,1.85
2022-09-12T10:26:02.192Z,2.00
2022-09-12T10:28:49.772Z,2.20
2022-09-12T10:31:30.269Z,1.90
2022-09-12T10:34:02.329Z,2.15
2022-09-12T10:36:42.043Z,2.15
2022-09-12T10:39:20.299Z,2.05
2022-09-12T10:41:51.206Z,2.20
2022-09-12T10:44:27.460Z,2.20
2022-09-12T10:46:58.380Z,2.33
2022-09-12T10:49:31.936Z,2.28
2022-09-12T10:52:18.347Z,2.38
2022-09-12T10:54:54.030Z,2.60
2022-09-12T10:57:30.006Z,2.30
2022-09-12T11:00:04.676Z,2.30
2022-09-12T11:02:40.396Z,2.35
2022-09-12T11:05:22.749Z,2.15
2022-09-12T11:08:08.411Z,1.90
2022-09-12T11:10:48.281Z,2.42
2022-09-12T11:13:29.804Z,2.10
2022-09-12T11:16:36.504Z,2.42
2022-09-12T11:19:13.076Z,2.40
2022-09-12T11:21:48.544Z,2.60
2022-09-12T11:24:25.716Z,2.15
2022-09-12T11:27:09.952Z,2.30
2022-09-12T11:30:00.423Z,2.20
2022-09-12T11:32:37.096Z,2.30
2022-09-12T11:35:25.757Z,2.30
2022-09-12T11:37:59.708Z,2.33
2022-09-12T11:40:45.458Z,2.35
2022-09-12T11:43:34.789Z,2.05
2022-09-12T11:46:32.170Z,2.40
2022-09-12T11:49:04.064Z,2.08
2022-09-12T11:51:38.456Z,2.10
2022-09-12T11:54:26.744Z,2.38
2022-09-12T11:57:05.601Z,2.30
2022-09-12T11:59:34.543Z,2.35
2022-09-12T12:02:05.286Z,2.30
2022-09-12T12:04:42.567Z,2.35
2022-09-12T12:07:14.253Z,2.30
2022-09-12T12:09:53.783Z,2.22
2022-09-12T12:12:26.129Z,2.20
2022-09-12T12:14:57.448Z,2.15
2022-09-12T12:17:40.439Z,2.40
2022-09-12T12:20:36.983Z,2.50
2022-09-12T12:25:53.064Z,2.30
2022-09-12T12:28:45.477Z,2.53
2022-09-12T12:31:16.217Z,2.38
2022-09-12T12:33:45.920Z,2.55
2022-09-12T12:36:40.040Z,2.38
2022-09-12T12:39:30.120Z,2.33
2022-09-12T12:42:02.341Z,2.30
2022-09-12T12:44:49.980Z,2.30
2022-09-12T12:47:40.893Z,2.30
2022-09-12T12:50:16.509Z,2.55
2022-09-12T12:53:01.732Z,2.20
2022-09-12T12:56:02.232Z,2.47
2022-09-12T12:58:42.360Z,2.30
2022-09-12T13:01:15.230Z,2.15
2022-09-12T13:03:46.235Z,2.30
2022-09-12T13:06:34.305Z,2.20
2022-09-12T13:09:08.400Z,2.40
2022-09-12T13:11:43.061Z,2.33
2022-09-12T13:14:31.054Z,2.25
2022-09-12T13:17:02.455Z,2.42
2022-09-12T13:19:34.153Z,2.22
2022-09-12T13:22:06.659Z,2.40
2022-09-12T13:24:49.461Z,2.22
2022-09-12T13:27:24.539Z,2.45
2022-09-12T13:30:14.655Z,2.30
2022-09-12T13:32:45.388Z,2.17
2022-09-12T13:35:24.126Z,2.67
2022-09-12T13:37:52.655Z,2.22
2022-09-12T13:40:30.197Z,2.13
2022-09-12T13:43:18.361Z,2.30
2022-09-12T13:45:49.105Z,2.50
2022-09-12T13:48:21.608Z,2.38
2022-09-12T13:50:56.860Z,2.55
2022-09-12T13:53:28.177Z,2.50
2022-09-12T13:56:00.223Z,2.53
2022-09-12T13:58:31.774Z,2.47
2022-09-12T14:01:15.518Z,2.47
2022-09-12T14:04:09.604Z,2.50
2022-09-12T14:06:48.603Z,2.15
2022-09-12T14:09:25.290Z,2.35
2022-09-12T14:11:58.285Z,2.40
2022-09-12T14:14:36.773Z,2.50
2022-09-12T14:17:19.807Z,2.50
2022-09-12T14:19:50.018Z,2.45
2022-09-12T14:22:19.248Z,2.22
2022-09-12T14:24:51.682Z,2.58
2022-09-12T14:31:54.299Z,2.15
2022-09-12T14:34:26.194Z,2.53
2022-09-12T14:36:57.471Z,2.50
2022-09-12T14:39:26.656Z,2.63
2022-09-12T14:42:18.804Z,2.42
2022-09-12T14:44:59.012Z,2.58
2022-09-12T14:47:30.292Z,2.55
2022-09-12T14:50:04.831Z,2.50
2022-09-12T14:52:35.970Z,2.53
2022-09-12T14:55:17.788Z,2.60
2022-09-12T14:57:46.756Z,2.40
2022-09-12T15:00:21.468Z,2.30
2022-09-12T15:05:24.838Z,2.33
2022-09-12T15:07:57.386Z,2.53
2022-09-12T15:10:26.171Z,2.47
2022-09-12T15:13:10.057Z,2.80
2022-09-12T15:15:42.226Z,2.40
2022-09-12T15:18:12.599Z,2.45
2022-09-12T15:20:44.687Z,2.58
2022-09-12T15:23:24.116Z,2.67
2022-09-12T15:25:53.806Z,2.58
2022-09-12T15:28:27.156Z,2.30
2022-09-12T15:30:57.711Z,2.30
2022-09-12T15:33:26.060Z,2.40
2022-09-12T15:35:55.817Z,2.30
2022-09-12T15:38:26.957Z,2.63
2022-09-12T15:40:58.021Z,2.40
2022-09-12T15:43:28.099Z,2.47
2022-09-12T15:45:56.376Z,2.30
2022-09-12T15:48:25.581Z,2.55
2022-09-12T15:50:54.701Z,2.35
2022-09-12T15:53:25.488Z,2.40
2022-09-12T15:55:54.614Z,2.33
2022-09-12T15:58:24.460Z,2.42
2022-09-12T16:00:54.615Z,2.33
2022-09-12T16:03:26.429Z,2.38
2022-09-12T16:06:01.343Z,2.13
2022-09-12T16:08:32.465Z,2.40
2022-09-12T16:11:04.885Z,2.17
2022-09-12T16:13:34.405Z,2.10
2022-09-12T16:16:05.438Z,1.90
2022-09-12T16:19:06.820Z,2.10
2022-09-12T16:21:36.134Z,2.20
2022-09-12T16:24:04.880Z,2.20
2022-09-12T16:26:34.075Z,2.20
2022-09-12T16:29:02.089Z,2.10
2022-09-12T16:31:32.231Z,2.10
2022-09-12T16:34:01.327Z,2.30
2022-09-12T16:36:30.014Z,2.00
2022-09-12T16:39:02.247Z,1.90
2022-09-12T16:41:31.889Z,1.92
2022-09-12T16:44:01.896Z,2.20
2022-09-12T16:46:48.811Z,2.00
2022-09-12T16:49:52.739Z,2.00
2022-09-12T16:52:26.096Z,2.40
2022-09-12T16:55:15.145Z,2.08
2022-09-12T16:57:50.515Z,2.20
2022-09-12T17:00:25.508Z,1.92
2022-09-12T17:03:06.952Z,2.03
2022-09-12T17:05:58.025Z,1.90
2022-09-12T17:08:33.054Z,2.10
2022-09-12T17:11:10.318Z,2.00
2022-09-12T17:14:04.586Z,2.00
2022-09-12T17:16:38.652Z,2.00
2022-09-12T17:19:30.377Z,2.00
2022-09-12T17:22:00.790Z,2.00
2022-09-12T17:24:35.857Z,1.85
2022-09-12T17:27:05.694Z,1.95
2022-09-12T17:29:41.039Z,1.85
2022-09-12T17:32:16.935Z,2.10
2022-09-12T17:35:50.523Z,2.00
2022-09-12T17:38:48.776Z,2.03
2022-09-12T17:44:56.801Z,2.00
2022-09-12T17:48:02.847Z,1.80
2022-09-12T17:50:39.512Z,2.00
2022-09-12T17:53:16.598Z,1.88
2022-09-12T17:55:52.619Z,1.85
2022-09-12T17:58:25.052Z,2.00
2022-09-12T18:01:16.140Z,2.10
2022-09-12T18:03:45.554Z,1.90
2022-09-12T18:06:17.934Z,1.85
2022-09-12T18:08:48.807Z,1.98
2022-09-12T18:11:20.727Z,2.13
2022-09-12T18:13:52.151Z,2.20
2022-09-12T19:04:26.085Z,2.13
2022-09-12T19:07:45.655Z,2.30
2022-09-12T19:11:22.497Z,2.20
2022-09-12T19:14:39.674Z,2.20
2022-09-12T19:17:49.552Z,2.22
2022-09-12T19:20:53.968Z,2.55
2022-09-12T19:24:20.968Z,2.13
2022-09-12T19:33:58.514Z,2.20
2022-09-12T19:37:22.897Z,2.25
2022-09-12T19:40:56.374Z,2.25
2022-09-12T19:44:13.382Z,2.50
2022-09-12T19:47:28.427Z,2.38
2022-09-12T19:51:02.258Z,2.70
2022-09-12T19:54:46.490Z,2.70
2022-09-12T19:57:54.198Z,2.25
2022-09-12T20:05:53.917Z,2.20
2022-09-12T20:09:02.320Z,2.38
2022-09-12T20:15:34.441Z,2.30
2022-09-12T20:18:42.222Z,2.53
2022-09-12T20:21:45.869Z,2.33
2022-09-12T20:25:01.932Z,2.42
2022-09-12T20:28:11.563Z,2.45
2022-09-12T20:31:38.650Z,2.30
2022-09-12T20:38:33.826Z,2.30
2022-09-12T20:42:57.511Z,1.90
2022-09-12T21:38:35.137Z,1.08
2022-09-12T21:42:20.466Z,1.30
2022-09-12T21:46:23.493Z,1.30
2022-09-12T21:51:03.125Z,1.17
2022-09-12T22:04:09.017Z,1.10
2022-09-12T22:08:05.473Z,1.08
2022-09-12T22:11:40.013Z,1.10
2022-09-12T22:27:22.929Z,1.00
2022-09-12T22:30:14.135Z,1.10
2022-09-12T22:32:46.049Z,1.08
2022-09-12T22:35:25.523Z,1.60
2022-09-12T22:38:01.879Z,1.40
2022-09-12T22:40:34.559Z,1.70
2022-09-12T22:43:06.172Z,1.50
2022-09-12T22:46:03.193Z,1.40
2022-09-12T22:48:46.660Z,1.17
2022-09-12T22:51:22.671Z,1.40
2022-09-12T22:53:55.583Z,1.20
2022-09-12T22:56:34.282Z,1.10
2022-09-12T22:59:15.261Z,1.13
2022-09-12T23:01:56.680Z,1.40
2022-09-12T23:04:35.810Z,1.40
2022-09-12T23:07:18.228Z,1.42
2022-09-12T23:09:54.268Z,1.30
2022-09-12T23:13:20.296Z,1.42
2022-09-12T23:17:55.315Z,1.23
2022-09-12T23:20:46.056Z,1.30
2022-09-12T23:23:15.854Z,1.10
2022-09-12T23:26:24.008Z,1.35
2022-09-12T23:29:19.034Z,1.42
2022-09-12T23:35:39.354Z,1.25
2022-09-12T23:38:19.003Z,1.42
2022-09-12T23:40:54.033Z,1.80
2022-09-12T23:43:26.836Z,1.33
2022-09-12T23:46:01.805Z,1.40
2022-09-12T23:48:36.920Z,1.52
2022-09-12T23:51:26.263Z,1.50
2022-09-12T23:54:13.923Z,1.60
2022-09-12T23:56:47.817Z,1.40
2022-09-12T23:59:23.625Z,1.30
